createdAt,value
2019-02-02T00:02:01.636Z,4
2019-02-02T00:07:56.640Z,3.98
2019-02-02T00:13:51.700Z,3.85
2019-02-02T00:19:46.646Z,3.61
2019-02-02T00:25:41.669Z,3.66
2019-02-02T00:31:36.647Z,4.01
2019-02-02T00:37:31.673Z,3.75
2019-02-02T00:43:26.650Z,3.79
2019-02-02T00:49:21.660Z,3.52
2019-02-02T00:55:16.728Z,3.6
2019-02-02T01:01:11.676Z,3.11
2019-02-02T01:07:06.713Z,2.89
2019-02-02T01:13:01.688Z,3.91
2019-02-02T01:18:56.675Z,3.49
2019-02-02T01:24:51.760Z,3.23
2019-02-02T01:30:46.740Z,3.03
2019-02-02T01:36:41.753Z,2.61
2019-02-02T01:42:36.697Z,2.55
2019-02-02T01:48:31.708Z,2.94
2019-02-02T01:54:26.709Z,3.18
2019-02-02T02:00:21.723Z,2.79
2019-02-02T02:06:16.751Z,2.63
2019-02-02T02:12:11.728Z,2.22
2019-02-02T02:18:06.752Z,1.99
2019-02-02T02:24:01.748Z,2.24
2019-02-02T02:29:56.763Z,1.93
2019-02-02T02:35:51.738Z,2.55
2019-02-02T02:41:46.767Z,1.89
2019-02-02T02:47:41.793Z,0.99
2019-02-02T02:53:36.742Z,1.9
2019-02-02T02:59:31.729Z,1.27
2019-02-02T03:05:26.742Z,0.94
2019-02-02T03:11:21.789Z,0.52
2019-02-02T03:17:16.851Z,0.7
2019-02-02T03:23:11.849Z,0.83
2019-02-02T03:29:06.813Z,0.67
2019-02-02T03:35:01.813Z,0.81
2019-02-02T03:40:56.786Z,0.88
2019-02-02T03:46:51.926Z,1.14
2019-02-02T03:52:46.802Z,1.33
2019-02-02T03:58:41.781Z,1.39
2019-02-02T04:04:36.854Z,1.15
2019-02-02T04:10:31.795Z,0.75
2019-02-02T04:16:26.845Z,1.12
2019-02-02T04:22:21.829Z,0.95
2019-02-02T04:28:16.898Z,0.82
2019-02-02T04:34:11.846Z,0.96
2019-02-02T04:40:06.846Z,1.07
2019-02-02T04:46:01.823Z,0.84
2019-02-02T04:51:56.830Z,1.18
2019-02-02T04:57:51.881Z,1.06
2019-02-02T05:03:46.844Z,1.01
2019-02-02T05:09:41.839Z,1.07
2019-02-02T05:15:36.828Z,1.01
2019-02-02T05:21:31.839Z,1.25
2019-02-02T05:27:26.841Z,1.44
2019-02-02T05:33:21.883Z,1.48
2019-02-02T05:39:16.878Z,1.56
2019-02-02T05:45:11.865Z,1.46
2019-02-02T05:51:06.859Z,1.43
2019-02-02T05:57:01.862Z,1.78
2019-02-02T06:02:56.854Z,2.13
2019-02-02T06:08:51.863Z,2.12
2019-02-02T06:14:46.923Z,2.11
2019-02-02T06:20:41.875Z,1.74
2019-02-02T06:26:36.898Z,2.07
2019-02-02T06:32:31.883Z,1.63
2019-02-02T06:38:26.989Z,1.57
2019-02-02T06:44:21.874Z,1.59
2019-02-02T06:50:16.904Z,3.96
2019-02-02T06:56:11.904Z,2.21
2019-02-02T07:02:06.904Z,1.97
2019-02-02T07:08:02.003Z,1.6
2019-02-02T07:13:56.909Z,1.61
2019-02-02T07:19:51.896Z,1.87
2019-02-02T07:25:46.956Z,2.7
2019-02-02T07:31:41.922Z,2.43
2019-02-02T07:37:36.913Z,1.97
2019-02-02T07:43:31.911Z,2.74
2019-02-02T07:49:26.922Z,4.01
2019-02-02T07:55:21.932Z,2.39
2019-02-02T08:01:16.930Z,2.05
2019-02-02T08:07:11.923Z,2.51
2019-02-02T08:13:06.944Z,4.08
2019-02-02T08:19:01.967Z,37.14
2019-02-02T08:24:56.974Z,18.43
2019-02-02T08:30:52.780Z,12.45
2019-02-02T08:36:47.000Z,4.87
2019-02-02T08:42:41.993Z,4.99
2019-02-02T08:48:36.960Z,9.88
2019-02-02T08:54:31.964Z,8.28
2019-02-02T09:00:26.963Z,26.85
2019-02-02T09:06:22.186Z,16.4
2019-02-02T09:12:16.999Z,16.02
2019-02-02T09:18:11.986Z,13.52
2019-02-02T09:24:07.007Z,6.07
2019-02-02T09:30:02.013Z,5.87
2019-02-02T09:35:56.991Z,4.99
2019-02-02T09:41:51.973Z,4.61
2019-02-02T09:47:46.992Z,4.59
2019-02-02T09:53:42.047Z,21.31
2019-02-02T09:59:36.998Z,25.01
2019-02-02T10:05:32.004Z,10.53
2019-02-02T10:11:26.993Z,12.24
2019-02-02T10:17:22.019Z,12.71
2019-02-02T10:23:17.055Z,9.44
2019-02-02T10:29:12.013Z,9.71
2019-02-02T10:35:07.070Z,10.9
2019-02-02T10:41:02.057Z,28.61
2019-02-02T10:46:57.031Z,30.39
2019-02-02T10:52:52.030Z,32.08
2019-02-02T10:58:47.116Z,33.62
2019-02-02T11:04:42.170Z,33.55
2019-02-02T11:10:37.121Z,28.15
2019-02-02T11:16:32.104Z,34.54
2019-02-02T11:22:27.052Z,32.55
2019-02-02T11:28:22.057Z,30.2
2019-02-02T11:34:17.078Z,26.11
2019-02-02T11:40:12.050Z,27.22
2019-02-02T11:46:07.061Z,29.14
2019-02-02T11:52:02.103Z,43.84
2019-02-02T11:57:57.088Z,32.53
2019-02-02T12:03:52.077Z,28.93
2019-02-02T12:09:47.040Z,21.3
2019-02-02T12:15:42.088Z,6.77
2019-02-02T12:21:37.094Z,6.24
2019-02-02T12:27:32.077Z,8.31
2019-02-02T12:33:27.070Z,4.71
2019-02-02T12:39:22.089Z,8.53
2019-02-02T12:45:17.076Z,6.17
2019-02-02T12:51:12.084Z,5.71
2019-02-02T12:57:07.078Z,6.13
2019-02-02T13:03:02.111Z,3.76
2019-02-02T13:08:57.120Z,3.52
2019-02-02T13:14:52.152Z,3.39
2019-02-02T13:20:47.085Z,4.27
2019-02-02T13:26:43.136Z,6.42
2019-02-02T13:32:37.108Z,20.15
2019-02-02T13:38:32.134Z,3.6
2019-02-02T13:44:27.120Z,1.99
2019-02-02T13:50:23.221Z,1.69
2019-02-02T13:56:17.163Z,1.37
2019-02-02T14:02:12.899Z,4.2
2019-02-02T14:08:07.153Z,12.43
2019-02-02T14:14:02.140Z,4.95
2019-02-02T14:19:57.268Z,3.22
2019-02-02T14:25:52.184Z,4.66
2019-02-02T14:31:47.141Z,3.39
2019-02-02T14:43:50.618Z,3.28
2019-02-02T14:43:50.635Z,3.28
2019-02-02T14:49:32.188Z,1.73
2019-02-02T14:55:27.137Z,1.2
2019-02-02T15:01:22.156Z,2.13
2019-02-02T15:07:17.174Z,15.25
2019-02-02T15:13:12.153Z,10.34
2019-02-02T15:19:07.172Z,1.7
2019-02-02T15:25:02.207Z,1.52
2019-02-02T15:30:57.165Z,4.07
2019-02-02T15:36:52.158Z,7.79
2019-02-02T15:42:47.184Z,5.89
2019-02-02T15:48:42.574Z,7.86
2019-02-02T15:54:37.159Z,22.64
2019-02-02T16:00:32.185Z,30.03
2019-02-02T16:06:27.186Z,12.7
2019-02-02T16:12:22.199Z,9.86
2019-02-02T16:18:17.207Z,11.41
2019-02-02T16:24:12.199Z,10.05
2019-02-02T16:30:07.195Z,9.08
2019-02-02T16:36:02.246Z,10.63
2019-02-02T16:41:57.230Z,11.97
2019-02-02T16:47:52.218Z,6.97
2019-02-02T16:53:47.228Z,11.3
2019-02-02T16:59:42.230Z,5.32
2019-02-02T17:05:37.237Z,6.28
2019-02-02T17:11:32.216Z,4.62
2019-02-02T17:17:27.242Z,3.15
2019-02-02T17:23:22.236Z,4.41
2019-02-02T17:29:17.273Z,5
2019-02-02T17:35:12.276Z,18.68
2019-02-02T17:41:07.239Z,4.42
2019-02-02T17:47:02.257Z,51.07
2019-02-02T17:52:57.250Z,7.29
2019-02-02T17:58:52.256Z,5.33
2019-02-02T18:04:47.279Z,6.83
2019-02-02T18:10:42.262Z,6.03
2019-02-02T18:16:37.299Z,5.91
2019-02-02T18:22:32.247Z,5.95
2019-02-02T18:28:27.318Z,5.41
2019-02-02T18:34:22.313Z,13.94
2019-02-02T18:40:17.293Z,21.72
2019-02-02T18:46:12.316Z,17.88
2019-02-02T18:52:07.299Z,9.88
2019-02-02T18:58:02.285Z,12.7
2019-02-02T19:03:57.307Z,17.92
2019-02-02T19:09:52.317Z,23.65
2019-02-02T19:15:47.314Z,36.13
2019-02-02T19:21:42.316Z,19.42
2019-02-02T19:27:37.318Z,21.43
2019-02-02T19:33:32.294Z,22.75
2019-02-02T19:39:27.354Z,37.13
2019-02-02T19:45:22.359Z,31.29
2019-02-02T19:51:17.348Z,18.29
2019-02-02T19:57:12.342Z,16
2019-02-02T20:03:07.318Z,15.03
2019-02-02T20:09:02.352Z,21.08
2019-02-02T20:14:57.328Z,20.82
2019-02-02T20:20:52.402Z,14.21
2019-02-02T20:26:47.378Z,14.37
2019-02-02T20:32:42.340Z,22.53
2019-02-02T20:38:40.029Z,21.44
2019-02-02T20:44:32.337Z,22.47
2019-02-02T20:50:27.341Z,21.79
2019-02-02T20:56:22.432Z,17.57
2019-02-02T21:02:17.349Z,27.94
2019-02-02T21:08:12.362Z,26.59
2019-02-02T21:14:07.397Z,26.53
2019-02-02T21:20:02.346Z,25.87
2019-02-02T21:25:57.380Z,26.64
2019-02-02T21:31:52.392Z,28.15
2019-02-02T21:37:47.367Z,26.52
2019-02-02T21:43:42.370Z,20.83
2019-02-02T21:49:37.382Z,18.33
2019-02-02T21:55:32.361Z,14.76
2019-02-02T22:01:27.374Z,19.66
2019-02-02T22:07:22.383Z,22.37
2019-02-02T22:13:17.413Z,19.16
2019-02-02T22:19:12.415Z,15.7
2019-02-02T22:25:07.383Z,13.53
2019-02-02T22:31:02.444Z,13.52
2019-02-02T22:36:57.459Z,12.81
2019-02-02T22:42:52.404Z,15.21
2019-02-02T22:48:47.452Z,17.39
2019-02-02T22:54:42.418Z,22.35
2019-02-02T23:00:37.412Z,14.3
2019-02-02T23:06:39.028Z,17.46
2019-02-02T23:12:27.426Z,17.88
2019-02-02T23:18:22.411Z,19.37
2019-02-02T23:24:17.474Z,10.68
2019-02-02T23:30:12.475Z,13.99
2019-02-02T23:36:07.447Z,16.75
2019-02-02T23:42:02.424Z,19.91
2019-02-02T23:47:57.434Z,18.23
2019-02-02T23:53:52.443Z,19.23
2019-02-02T23:59:47.472Z,18.62
